Flight Track Log - Related Links

Times and Time Zones

All times are in EDT time to prevent confusion due to time zone crossing. See the ASQ5230 flight status page for this flight to view local times or setup timezone preferences in your user account.

Time Position Orientation Groundspeed Altitude Reporting Facility
EDT Latitude Longitude Course Direction KTS MPH feet Rate Location/Type
Fri 06:55:06 AM 41.8783 -91.6247 162° South 188 216 4,000  Level Chicago Center
Fri 06:56:06 AM 41.8622 -91.5286 103° East 224 258 6,300 2,132 Climbing Chicago Center
Fri 06:57:07 AM 41.7950 -91.5025 164° South 250 288 8,300 2,033 Climbing Chicago Center
Fri 06:58:07 AM 41.7239 -91.4761 165° South 266 306 10,400 2,132 Climbing Chicago Center
Fri 06:59:08 AM 41.6536 -91.4503 165° South 264 304 12,600 1,574 Climbing Chicago Center
Fri 07:00:00 AM 41.3709 -91.5377 162° South  Level FlightAware Approximate
Fri 07:00:09 AM 41.5775 -91.4231 165° South 280 322 13,600  Level Chicago Center
Fri 07:01:09 AM 41.4919 -91.3917 165° South 317 365 14,900 1,438 Climbing Chicago Center
Fri 07:02:10 AM 41.4050 -91.3606 165° South 323 372 16,500 1,537 Climbing Chicago Center
Fri 07:03:10 AM 41.3197 -91.3294 165° South 321 369 18,000 1,537 Climbing Chicago Center
Fri 07:04:11 AM 41.2261 -91.2981 166° South 316 364 19,600 1,279 Climbing Chicago Center
Fri 07:05:12 AM 41.1406 -91.2664 164° South 318 366 20,600 942 Climbing Chicago Center
Fri 07:06:12 AM 41.0528 -91.2364 166° South 324 373 21,500 843 Climbing Chicago Center
Fri 07:07:13 AM 40.9628 -91.2042 165° South 333 383 22,300 787 Climbing Chicago Center
Fri 07:08:14 AM 40.8694 -91.1722 165° South 345 397 23,100 836 Climbing Chicago Center
Fri 07:09:15 AM 40.7761 -91.1386 165° South 348 400 24,000 843 Climbing Chicago Center
Fri 07:10:15 AM 40.6825 -91.1053 165° South 349 402 24,800 744 Climbing Chicago Center
Fri 07:11:16 AM 40.5894 -91.0719 165° South 349 402 25,500 689 Climbing Chicago Center
Fri 07:12:17 AM 40.4947 -91.0394 165° South 350 403 26,200 639 Climbing Chicago Center
Fri 07:13:18 AM 40.3994 -91.0064 165° South 355 409 26,800 581 Climbing Chicago Center
Fri 07:13:50 AM 40.3389 -90.9839 164° South 358 412 27,100 587 Climbing Kansas City Center
Fri 07:14:50 AM 40.2511 -90.9544 166° South 357 411 27,700 595 Climbing Kansas City Center
Fri 07:15:51 AM 40.1472 -90.9181 165° South 358 412 28,300 545 Climbing Kansas City Center
Fri 07:16:51 AM 40.0497 -90.8842 165° South 360 414 28,800 496 Climbing Kansas City Center
Fri 07:17:52 AM 39.9558 -90.8539 166° South 354 407 29,300 496 Climbing Kansas City Center
Fri 07:18:52 AM 39.8586 -90.8206 165° South 359 413 29,800 496 Climbing Kansas City Center
Fri 07:19:53 AM 39.7611 -90.7869 165° South 362 417 30,300 496 Climbing Kansas City Center
Fri 07:20:53 AM 39.6589 -90.7522 165° South 365 420 30,800 347 Climbing Kansas City Center
Fri 07:21:54 AM 39.5603 -90.7183 165° South 366 421 31,000 98 Climbing Kansas City Center
Fri 07:22:55 AM 39.4606 -90.6858 166° South 370 426 31,000  Level Kansas City Center
Fri 07:23:55 AM 39.3589 -90.6514 165° South 376 433 31,000  Level Kansas City Center
Fri 07:24:56 AM 39.2547 -90.6158 165° South 384 442 31,000  Level Kansas City Center
Fri 07:25:56 AM 39.1508 -90.5803 165° South 387 445 31,000  Level Kansas City Center
Fri 07:26:57 AM 39.0475 -90.5458 165° South 386 444 31,000  Level Kansas City Center
Fri 07:27:58 AM 38.9353 -90.5075 165° South 383 441 31,000  Level Kansas City Center
Fri 07:28:58 AM 38.8381 -90.4611 160° South 380 437 31,000  Level Kansas City Center
Fri 07:29:59 AM 38.7714 -90.3531 128° Southeast 383 441 31,000  Level Kansas City Center
Fri 07:30:59 AM 38.7028 -90.2508 131° Southeast 380 437 31,000  Level Kansas City Center
Fri 07:32:00 AM 38.6369 -90.1525 131° Southeast 380 437 31,000  Level Kansas City Center
Fri 07:33:01 AM 38.5664 -90.0506 131° Southeast 382 440 31,000  Level Kansas City Center
Fri 07:34:01 AM 38.4956 -89.9481 131° Southeast 384 442 31,000  Level Kansas City Center
Fri 07:35:02 AM 38.4244 -89.8456 132° Southeast 386 444 31,000  Level Kansas City Center
Fri 07:36:03 AM 38.3564 -89.7419 130° Southeast 384 442 31,000  Level Kansas City Center
Fri 07:37:03 AM 38.2717 -89.6247 133° Southeast 388 447 31,000  Level Kansas City Center
Fri 07:38:04 AM 38.2008 -89.5222 131° Southeast 387 445 31,000 49 Level Kansas City Center
Fri 07:39:05 AM 38.1208 -89.4083 132° Southeast 401 461 31,100 295 Climbing Kansas City Center
Fri 07:40:06 AM 38.0472 -89.3031 132° Southeast 399 459 31,600 492 Climbing Kansas City Center
Fri 07:41:07 AM 37.9731 -89.1981 132° Southeast 399 459 32,100 496 Climbing Kansas City Center
Fri 07:42:07 AM 37.9006 -89.0939 131° Southeast 394 453 32,600 446 Climbing Kansas City Center
Fri 07:43:08 AM 37.8286 -88.9953 133° Southeast 396 456 33,000 197 Climbing Kansas City Center
Fri 07:44:09 AM 37.7650 -88.8975 129° Southeast 393 452 33,000  Level Kansas City Center
Fri 07:45:10 AM 37.6772 -88.7753 132° Southeast 392 451 33,000  Level Kansas City Center
Fri 07:46:11 AM 37.6144 -88.6894 133° Southeast 387 445 33,000  Level Kansas City Center
Fri 07:47:12 AM 37.5194 -88.5981 143° Southeast 382 440 33,000  Level Kansas City Center
Fri 07:48:13 AM 37.4211 -88.5589 162° South 373 429 33,000  Level Kansas City Center
Fri 07:49:14 AM 37.3214 -88.5164 161° South 375 432 33,000  Level Kansas City Center
Fri 07:50:14 AM 37.2222 -88.4753 162° South 375 432 33,000  Level Kansas City Center
Fri 07:51:20 AM 37.1233 -88.4369 163° South 375 432 33,000  Level Memphis Center
Fri 07:52:20 AM 37.0247 -88.3925 160° South 375 432 33,000  Level Memphis Center
Fri 07:53:20 AM 36.9219 -88.3536 163° South 380 437 33,000  Level Memphis Center
Fri 07:54:20 AM 36.8233 -88.3119 161° South 380 437 33,000  Level Memphis Center
Fri 07:55:20 AM 36.7247 -88.2706 161° South 380 437 33,000  Level Memphis Center
Fri 07:56:20 AM 36.6239 -88.2317 163° South 385 443 33,000  Level Memphis Center
Fri 07:57:20 AM 36.5253 -88.1878 160° South 380 437 33,000  Level Memphis Center
Fri 07:58:20 AM 36.4264 -88.1467 162° South 380 437 33,000  Level Memphis Center
Fri 07:59:20 AM 36.3153 -88.1083 164° South 380 437 33,000  Level Memphis Center
Fri 08:00:20 AM 36.2167 -88.0675 162° South 380 437 33,000  Level Memphis Center
Fri 08:01:20 AM 36.1178 -88.0292 163° South 380 437 33,000  Level Memphis Center
Fri 08:02:20 AM 36.0192 -87.9883 161° South 380 437 33,000  Level Memphis Center
Fri 08:03:20 AM 35.9183 -87.9478 162° South 380 437 33,000  Level Memphis Center
Fri 08:04:20 AM 35.8194 -87.9094 163° South 380 437 33,000  Level Memphis Center
Fri 08:05:20 AM 35.7186 -87.8692 162° South 385 443 33,000  Level Memphis Center
Fri 08:06:20 AM 35.6197 -87.8311 163° South 385 443 33,000  Level Memphis Center
Fri 08:07:20 AM 35.5189 -87.7908 162° South 378 435 33,000  Level Memphis Center
Fri 08:08:20 AM 35.4286 -87.7556 162° South 383 441 33,000  Level Memphis Center
Fri 08:09:20 AM 35.3294 -87.7128 161° South 378 435 33,000  Level Memphis Center
Fri 08:10:20 AM 35.2264 -87.6728 162° South 378 435 33,000  Level Memphis Center
Fri 08:11:20 AM 35.1272 -87.6203 157° South 389 448 33,000  Level Memphis Center
Fri 08:12:20 AM 35.0581 -87.5133 128° Southeast 389 448 33,000  Level Memphis Center
Fri 08:14:01 AM 34.9767 -87.2808 113° Southeast 408 470 33,000  Level Atlanta Center
Fri 08:15:01 AM 34.9278 -87.1497 114° Southeast 419 482 33,000  Level Atlanta Center
Fri 08:16:01 AM 34.8789 -87.0164 114° Southeast 424 488 33,000  Level Atlanta Center
Fri 08:17:01 AM 34.8300 -86.8831 114° Southeast 424 488 33,000  Level Atlanta Center
Fri 08:18:01 AM 34.7808 -86.7472 114° Southeast 424 488 33,000 -150 Level Atlanta Center
Fri 08:19:01 AM 34.7317 -86.6117 114° Southeast 429 494 32,700 -700 Descending Atlanta Center
Fri 08:20:01 AM 34.6803 -86.4736 114° Southeast 429 494 31,600 -1,000 Descending Atlanta Center
Fri 08:21:01 AM 34.6225 -86.3308 116° Southeast 447 514 30,700 -1,000 Descending Atlanta Center
Fri 08:22:01 AM 34.5644 -86.1853 116° Southeast 460 529 29,600 -1,050 Descending Atlanta Center
Fri 08:23:01 AM 34.5064 -86.0428 116° Southeast 470 541 28,600 -1,000 Descending Atlanta Center
Fri 08:24:01 AM 34.4503 -85.9003 115° Southeast 470 541 27,600 -800 Descending Atlanta Center
Fri 08:25:01 AM 34.3978 -85.7808 118° Southeast 463 533 27,000 -950 Descending Atlanta Center
Fri 08:26:01 AM 34.3472 -85.6464 114° Southeast 450 518 25,700 -1,850 Descending Atlanta Center
Fri 08:27:01 AM 34.2986 -85.5300 117° Southeast 406 467 23,300 -2,450 Descending Atlanta Center
Fri 08:28:01 AM 34.2519 -85.4136 116° Southeast 385 443 20,800 -2,450 Descending Atlanta Center
Fri 08:29:01 AM 34.2242 -85.2800 104° East 380 437 18,400 -2,350 Descending Atlanta Center
Fri 08:30:01 AM 34.1750 -85.1814 121° Southeast 352 405 16,100 -2,250 Descending Atlanta Center
Fri 08:31:01 AM 34.1236 -85.0878 124° Southeast 338 389 13,900 -1,550 Descending Atlanta Center
Fri 08:32:01 AM 34.0764 -85.0119 127° Southeast 304 350 13,000 -500 Descending Atlanta Center
Fri 08:33:01 AM 34.0183 -84.9436 136° Southeast 291 335 12,900 -800 Descending Atlanta Center
Fri 08:34:01 AM 33.9372 -84.9278 171° South 291 335 11,400 -1,500 Descending Atlanta Center
Fri 08:35:01 AM 33.8600 -84.9119 170° South 284 327 9,900 -1,250 Descending Atlanta Center
Fri 08:36:01 AM 33.7850 -84.9011 173° South 279 321 8,900 -1,000 Descending Atlanta Center
Fri 08:37:01 AM 33.7244 -84.9156 191° South 249 287 7,900 -950 Descending Atlanta Center
Fri 08:38:01 AM 33.6639 -84.9225 185° South 228 262 7,000 -450 Descending Atlanta Center
Fri 08:39:01 AM 33.6308 -84.8747 130° Southeast 191 220 7,000  Level Atlanta Center
Fri 08:39:26 AM 33.6333 -84.8500 83° East 209 241 7,000 -353 Level Atlanta TRACON
Fri 08:40:26 AM 33.6333 -84.7833 90° East 193 222 6,500 -800 Descending Atlanta TRACON
Fri 08:41:26 AM 33.6333 -84.7167 90° East 165 190 5,400 -1,000 Descending Atlanta TRACON
Fri 08:42:20 AM 33.6333 -84.6667 90° East 162 186 4,600 -833 Descending Atlanta TRACON
Fri 08:43:14 AM 33.6333 -84.6333 90° East 153 176 3,900 -789 Descending Atlanta TRACON
Fri 08:44:14 AM 33.6333 -84.5667 90° East 157 181 3,100 -789 Descending Atlanta TRACON
Fri 08:45:08 AM 33.6333 -84.5333 90° East 137 158 2,400 -737 Descending Atlanta TRACON
Fri 08:46:08 AM 33.6333 -84.4833 90° East 125 144 1,700 -700 Descending Atlanta TRACON
Fri 08:48:00 AM 33.6367 -84.4279 102° East  Level Estimated
Fri 08:55:00 AM 33.6367 -84.4279 102° East  Level Estimated
Fri 08:56:00 AM 33.6367 -84.4279 102° East  Level Estimated

Login

Don't have an account? Register now (free) for customized features, flight alerts, and more!